createdAt,value
2022-12-20T00:01:33.637Z,101092.66
2022-12-20T00:04:05.540Z,101107.00
2022-12-20T00:06:35.983Z,101081.13
2022-12-20T00:09:06.016Z,101072.56
2022-12-20T00:11:33.701Z,101091.94
2022-12-20T00:14:00.806Z,101092.72
2022-12-20T00:16:29.316Z,101078.28
2022-12-20T00:18:59.808Z,101055.94
2022-12-20T00:21:27.916Z,101049.13
2022-12-20T00:23:56.029Z,101054.69
2022-12-20T00:26:26.883Z,101043.75
2022-12-20T00:28:54.937Z,101032.59
2022-12-20T00:31:24.291Z,101041.31
2022-12-20T00:33:54.529Z,101026.66
2022-12-20T00:36:24.118Z,101019.97
2022-12-20T00:38:53.213Z,101014.78
2022-12-20T00:41:24.615Z,101021.50
2022-12-20T00:43:52.747Z,101037.78
2022-12-20T00:46:23.346Z,101038.66
2022-12-20T00:48:51.084Z,101027.78
2022-12-20T00:51:25.512Z,101034.50
2022-12-20T00:53:53.117Z,101024.97
2022-12-20T00:56:21.140Z,101029.53
2022-12-20T00:58:48.087Z,101030.84
2022-12-20T01:01:27.526Z,101028.69
2022-12-20T01:03:55.266Z,101037.66
2022-12-20T01:06:25.012Z,101033.50
2022-12-20T01:08:53.842Z,101032.28
2022-12-20T01:11:31.575Z,101027.19
2022-12-20T01:14:05.256Z,101018.53
2022-12-20T01:16:45.050Z,101018.53
2022-12-20T01:19:15.691Z,101008.06
2022-12-20T01:21:45.909Z,101003.78
2022-12-20T01:24:15.380Z,101007.50
2022-12-20T01:26:42.708Z,101017.75
2022-12-20T01:29:10.078Z,101014.59
2022-12-20T01:31:37.393Z,101022.56
2022-12-20T01:34:04.377Z,101026.31
2022-12-20T01:36:34.414Z,101019.81
2022-12-20T01:39:14.682Z,101016.13
2022-12-20T01:41:42.552Z,101026.94
2022-12-20T01:44:18.564Z,101033.25
2022-12-20T01:46:50.841Z,101023.81
2022-12-20T01:49:22.277Z,101020.72
2022-12-20T01:52:16.648Z,101040.91
2022-12-20T01:54:52.915Z,101030.91
2022-12-20T01:58:06.194Z,101037.13
2022-12-20T02:00:33.265Z,101032.97
2022-12-20T02:03:05.514Z,101031.31
2022-12-20T02:05:40.607Z,101036.66
2022-12-20T02:08:09.138Z,101029.28
2022-12-20T02:11:09.734Z,101024.50
2022-12-20T02:13:59.657Z,101021.16
2022-12-20T02:16:34.556Z,101011.06
2022-12-20T02:19:39.363Z,101008.25
2022-12-20T02:22:34.186Z,101005.44
2022-12-20T02:25:38.979Z,101015.38
2022-12-20T02:28:24.736Z,101022.72
2022-12-20T02:30:55.153Z,101010.38
2022-12-20T02:33:25.484Z,101019.59
2022-12-20T02:35:52.407Z,101024.53
2022-12-20T02:38:31.865Z,101016.66
2022-12-20T02:41:26.174Z,101017.13
2022-12-20T02:44:21.515Z,101023.22
2022-12-20T02:46:50.572Z,101000.00
2022-12-20T02:49:21.248Z,101018.25
2022-12-20T02:51:51.753Z,101012.34
2022-12-20T02:54:19.488Z,101019.94
2022-12-20T02:56:57.741Z,101016.47
2022-12-20T02:59:41.937Z,101016.25
2022-12-20T03:02:09.697Z,100998.28
2022-12-20T03:04:40.201Z,100995.75
2022-12-20T03:07:11.920Z,100998.72
2022-12-20T03:09:42.802Z,101001.19
2022-12-20T03:12:11.803Z,100999.53
2022-12-20T03:14:40.310Z,101002.50
2022-12-20T03:17:08.111Z,100995.09
2022-12-20T03:19:35.575Z,100993.13
2022-12-20T03:22:02.644Z,100999.25
2022-12-20T03:24:29.564Z,100984.75
2022-12-20T03:26:56.514Z,100989.34
2022-12-20T03:29:23.711Z,100975.38
2022-12-20T03:31:50.663Z,100981.44
2022-12-20T03:34:17.663Z,100973.03
2022-12-20T03:36:44.649Z,100963.19
2022-12-20T03:39:11.627Z,100956.31
2022-12-20T03:41:38.585Z,100968.59
2022-12-20T03:44:05.564Z,100961.22
2022-12-20T03:46:32.665Z,100955.97
2022-12-20T03:48:59.966Z,100941.34
2022-12-20T03:51:26.939Z,100951.50
2022-12-20T03:53:53.862Z,100949.00
2022-12-20T03:56:20.923Z,100938.66
2022-12-20T03:58:47.882Z,100935.56
2022-12-20T04:01:29.374Z,100935.44
2022-12-20T04:03:57.225Z,100927.34
2022-12-20T04:06:24.450Z,100934.38
2022-12-20T04:08:51.391Z,100932.66
2022-12-20T04:11:20.029Z,100935.47
2022-12-20T04:13:49.517Z,100925.41
2022-12-20T04:16:22.895Z,100926.22
2022-12-20T04:18:51.723Z,100906.97
2022-12-20T04:21:32.436Z,100912.41
2022-12-20T04:24:02.447Z,100903.75
2022-12-20T04:26:29.961Z,100896.47
2022-12-20T04:28:57.062Z,100898.75
2022-12-20T04:31:24.719Z,100886.06
2022-12-20T04:33:52.219Z,100888.53
2022-12-20T04:36:19.881Z,100890.72
2022-12-20T04:38:46.866Z,100896.03
2022-12-20T04:41:22.819Z,100888.69
2022-12-20T04:43:58.460Z,100898.41
2022-12-20T04:46:29.507Z,100873.84
2022-12-20T04:48:58.820Z,100879.22
2022-12-20T04:51:27.856Z,100876.69
2022-12-20T04:53:55.347Z,100873.25
2022-12-20T04:56:28.902Z,100880.84
2022-12-20T04:58:58.776Z,100886.09
2022-12-20T05:01:26.262Z,100898.13
2022-12-20T05:03:53.890Z,100868.47
2022-12-20T05:06:20.926Z,100894.28
2022-12-20T05:08:48.322Z,100886.00
2022-12-20T05:11:15.546Z,100876.78
2022-12-20T05:13:42.590Z,100869.44
2022-12-20T05:16:09.560Z,100872.31
2022-12-20T05:18:36.786Z,100870.34
2022-12-20T05:21:22.359Z,100860.69
2022-12-20T05:24:08.107Z,100845.91
2022-12-20T05:26:38.288Z,100860.28
2022-12-20T05:29:06.198Z,100845.81
2022-12-20T05:31:33.592Z,100825.25
2022-12-20T05:34:00.686Z,100838.91
2022-12-20T05:36:27.859Z,100825.00
2022-12-20T05:39:01.750Z,100820.28
2022-12-20T05:41:30.808Z,100821.41
2022-12-20T05:43:58.179Z,100825.69
2022-12-20T05:46:25.400Z,100837.63
2022-12-20T05:48:52.979Z,100815.97
2022-12-20T05:51:19.889Z,100823.00
2022-12-20T05:53:46.817Z,100836.38
2022-12-20T05:56:13.908Z,100811.44
2022-12-20T05:58:40.830Z,100810.31
2022-12-20T06:01:08.972Z,100820.44
2022-12-20T06:03:36.708Z,100832.72
2022-12-20T06:06:10.127Z,100819.34
2022-12-20T06:08:39.065Z,100812.22
2022-12-20T06:11:07.047Z,100800.81
2022-12-20T06:13:34.011Z,100798.38
2022-12-20T06:16:00.994Z,100811.22
2022-12-20T06:18:28.073Z,100797.72
2022-12-20T06:20:55.603Z,100808.44
2022-12-20T06:23:23.390Z,100804.72
2022-12-20T06:25:50.469Z,100813.69
2022-12-20T06:28:21.941Z,100820.84
2022-12-20T06:30:56.580Z,100819.66
2022-12-20T06:33:24.532Z,100819.81
2022-12-20T06:35:52.340Z,100826.44
2022-12-20T06:38:19.356Z,100826.00
2022-12-20T06:40:46.320Z,100827.69
2022-12-20T06:43:13.212Z,100841.34
2022-12-20T06:45:42.071Z,100840.84
2022-12-20T06:48:10.026Z,100848.50
2022-12-20T06:50:38.943Z,100848.84
2022-12-20T06:53:05.907Z,100851.28
2022-12-20T06:55:33.175Z,100849.16
2022-12-20T06:58:00.172Z,100846.53
2022-12-20T07:00:27.490Z,100850.81
2022-12-20T07:02:54.906Z,100857.22
2022-12-20T07:05:22.086Z,100862.13
2022-12-20T07:07:49.266Z,100855.41
2022-12-20T07:10:16.688Z,100865.84
2022-12-20T07:12:47.723Z,100865.47
2022-12-20T07:15:15.960Z,100870.16
2022-12-20T07:17:42.988Z,100868.19
2022-12-20T07:20:14.133Z,100871.19
2022-12-20T07:22:41.728Z,100875.97
2022-12-20T07:25:09.973Z,100864.09
2022-12-20T07:27:37.539Z,100865.75
2022-12-20T07:30:05.381Z,100866.25
2022-12-20T07:32:32.695Z,100853.28
2022-12-20T07:34:59.660Z,100859.69
2022-12-20T07:37:28.911Z,100846.19
2022-12-20T07:39:55.849Z,100842.94
2022-12-20T07:42:22.794Z,100849.31
2022-12-20T07:44:49.767Z,100851.31
2022-12-20T07:47:16.727Z,100864.47
2022-12-20T07:49:43.641Z,100855.91
2022-12-20T07:52:12.609Z,100857.81
2022-12-20T07:54:47.661Z,100855.72
2022-12-20T07:57:24.095Z,100849.66
2022-12-20T07:59:57.154Z,100864.09
2022-12-20T08:02:32.356Z,100864.75
2022-12-20T08:05:00.060Z,100856.22
2022-12-20T08:07:30.060Z,100860.81
2022-12-20T08:09:57.897Z,100855.19
2022-12-20T08:12:26.707Z,100856.59
2022-12-20T08:14:56.379Z,100861.16
2022-12-20T08:17:24.306Z,100853.94
2022-12-20T08:19:52.132Z,100854.94
2022-12-20T08:22:19.809Z,100856.91
2022-12-20T08:24:46.900Z,100860.63
2022-12-20T08:27:14.252Z,100862.41
2022-12-20T08:29:41.438Z,100868.38
2022-12-20T08:32:08.396Z,100869.69
2022-12-20T08:34:35.343Z,100867.38
2022-12-20T08:37:02.289Z,100868.41
2022-12-20T08:39:29.192Z,100857.81
2022-12-20T08:41:56.139Z,100856.97
2022-12-20T08:44:23.218Z,100875.91
2022-12-20T08:46:50.196Z,100860.28
2022-12-20T08:49:17.302Z,100861.22
2022-12-20T08:51:44.375Z,100860.25
2022-12-20T08:54:11.359Z,100875.50
2022-12-20T08:56:38.303Z,100871.41
2022-12-20T08:59:05.923Z,100867.19
2022-12-20T09:01:34.193Z,100871.88
2022-12-20T09:04:01.608Z,100851.03
2022-12-20T09:06:28.607Z,100864.09
2022-12-20T09:08:55.755Z,100868.59
2022-12-20T09:11:27.535Z,100871.59
2022-12-20T09:13:57.570Z,100885.16
2022-12-20T09:16:28.907Z,100875.38
2022-12-20T09:19:04.609Z,100870.53
2022-12-20T09:21:33.348Z,100868.78
2022-12-20T09:24:00.398Z,100871.28
2022-12-20T09:26:27.402Z,100872.63
2022-12-20T09:28:54.743Z,100873.81
2022-12-20T09:31:25.092Z,100877.19
2022-12-20T09:33:58.039Z,100879.88
2022-12-20T09:36:27.840Z,100880.09
2022-12-20T09:38:55.588Z,100870.72
2022-12-20T09:41:44.527Z,100869.00
2022-12-20T09:44:40.361Z,100869.84
2022-12-20T09:47:24.861Z,100871.13
2022-12-20T09:49:56.702Z,100864.34
2022-12-20T09:52:53.594Z,100863.94
2022-12-20T09:55:23.477Z,100873.13
2022-12-20T09:58:11.948Z,100868.78
2022-12-20T10:00:53.813Z,100873.03
2022-12-20T10:03:33.709Z,100871.19
2022-12-20T10:06:17.487Z,100860.28
2022-12-20T10:08:47.446Z,100872.13
2022-12-20T10:12:01.801Z,100870.72
2022-12-20T10:15:00.789Z,100876.47
2022-12-20T10:17:50.463Z,100887.47
2022-12-20T10:20:47.183Z,100884.81
2022-12-20T10:23:45.726Z,100886.94
2022-12-20T10:26:13.927Z,100880.75
2022-12-20T10:28:41.086Z,100877.34
2022-12-20T10:31:15.183Z,100882.06
2022-12-20T10:33:43.478Z,100876.97
2022-12-20T10:36:38.414Z,100872.41
2022-12-20T10:39:10.235Z,100875.16
2022-12-20T10:41:40.405Z,100868.47
2022-12-20T10:44:20.626Z,100864.72
2022-12-20T10:46:51.091Z,100874.69
2022-12-20T10:49:40.844Z,100873.84
2022-12-20T10:52:07.870Z,100868.50
2022-12-20T10:54:41.821Z,100859.28
2022-12-20T10:57:27.608Z,100857.53
2022-12-20T11:00:09.017Z,100859.03
2022-12-20T11:02:41.932Z,100851.56
2022-12-20T11:05:12.721Z,100854.22
2022-12-20T11:10:45.047Z,100851.56
2022-12-20T11:13:26.016Z,100853.13
2022-12-20T11:15:57.813Z,100847.56
2022-12-20T11:18:47.263Z,100846.00
2022-12-20T11:21:46.296Z,100837.78
2022-12-20T11:24:50.845Z,100838.69
2022-12-20T11:28:37.410Z,100838.69
2022-12-20T11:31:42.638Z,100835.75
2022-12-20T11:34:39.676Z,100838.22
2022-12-20T11:37:24.230Z,100838.84
2022-12-20T11:40:06.095Z,100841.06
2022-12-20T11:42:51.301Z,100838.19
2022-12-20T11:45:36.175Z,100832.41
2022-12-20T11:48:21.216Z,100829.59
2022-12-20T11:51:13.550Z,100834.34
2022-12-20T11:54:05.002Z,100836.63
2022-12-20T11:56:43.815Z,100814.81
2022-12-20T11:59:45.638Z,100807.59
2022-12-20T12:02:34.352Z,100815.84
2022-12-20T12:05:06.932Z,100813.81
2022-12-20T12:07:40.172Z,100822.19
2022-12-20T12:10:20.891Z,100819.72
2022-12-20T12:13:11.787Z,100814.47
2022-12-20T12:16:07.614Z,100818.91
2022-12-20T12:18:37.214Z,100819.03
2022-12-20T12:21:23.376Z,100819.75
2022-12-20T12:24:06.222Z,100825.78
2022-12-20T12:26:36.838Z,100825.03
2022-12-20T12:29:10.933Z,100818.09
2022-12-20T12:32:07.134Z,100823.22
2022-12-20T12:35:10.042Z,100819.06
2022-12-20T12:38:22.851Z,100824.69
2022-12-20T12:41:04.742Z,100818.09
2022-12-20T12:43:53.298Z,100818.25
2022-12-20T12:46:30.097Z,100821.03
2022-12-20T12:49:13.124Z,100818.09
2022-12-20T12:51:43.541Z,100825.53
2022-12-20T12:54:21.526Z,100820.84
2022-12-20T12:56:53.794Z,100823.91
2022-12-20T12:59:29.957Z,100822.19
2022-12-20T13:02:17.872Z,100809.44
2022-12-20T13:05:02.070Z,100817.16
2022-12-20T13:07:39.998Z,100816.94
2022-12-20T13:10:09.993Z,100821.66
2022-12-20T13:12:36.929Z,100819.94
2022-12-20T13:15:03.919Z,100808.72
2022-12-20T13:17:30.894Z,100809.56
2022-12-20T13:19:58.546Z,100810.78
2022-12-20T13:22:26.688Z,100817.41
2022-12-20T13:24:57.005Z,100814.84
2022-12-20T13:27:40.431Z,100810.94
2022-12-20T13:30:10.491Z,100806.94
2022-12-20T13:32:49.352Z,100813.00
2022-12-20T13:35:25.561Z,100813.16
2022-12-20T13:38:04.123Z,100822.50
2022-12-20T13:40:44.729Z,100811.19
2022-12-20T13:43:20.394Z,100815.97
2022-12-20T13:45:58.064Z,100809.41
2022-12-20T13:48:44.703Z,100799.53
2022-12-20T13:51:16.831Z,100784.44
2022-12-20T13:53:56.063Z,100793.31
2022-12-20T13:56:29.689Z,100794.97
2022-12-20T13:59:03.864Z,100802.06
2022-12-20T14:01:34.987Z,100803.94
2022-12-20T14:04:07.335Z,100792.44
2022-12-20T14:06:35.513Z,100804.53
2022-12-20T14:09:03.347Z,100806.00
2022-12-20T14:11:30.319Z,100804.63
2022-12-20T14:14:00.504Z,100807.50
2022-12-20T14:16:33.453Z,100791.47
2022-12-20T14:19:06.965Z,100797.03
2022-12-20T14:21:43.692Z,100798.38
2022-12-20T14:24:22.758Z,100799.06
2022-12-20T14:26:53.794Z,100796.72
2022-12-20T14:29:29.457Z,100805.63
2022-12-20T14:31:57.225Z,100812.28
2022-12-20T14:34:36.692Z,100806.75
2022-12-20T14:37:23.838Z,100801.66
2022-12-20T14:40:20.619Z,100807.59
2022-12-20T14:42:47.558Z,100806.91
2022-12-20T14:45:14.517Z,100808.69
2022-12-20T14:48:03.059Z,100802.47
2022-12-20T14:50:40.764Z,100806.19
2022-12-20T14:53:25.220Z,100795.94
2022-12-20T14:55:52.789Z,100800.91
2022-12-20T14:58:38.062Z,100810.59
2022-12-20T15:01:31.307Z,100808.31
2022-12-20T15:04:01.568Z,100814.31
2022-12-20T15:06:41.723Z,100809.41
2022-12-20T15:09:08.667Z,100810.47
2022-12-20T15:11:37.873Z,100808.66
2022-12-20T15:14:36.730Z,100805.06
2022-12-20T15:17:10.906Z,100804.41
2022-12-20T15:19:42.191Z,100806.97
2022-12-20T15:22:20.613Z,100800.88
2022-12-20T15:24:47.530Z,100795.31
2022-12-20T15:27:15.512Z,100797.72
2022-12-20T15:29:43.339Z,100795.19
2022-12-20T15:32:30.050Z,100786.78
2022-12-20T15:34:57.088Z,100787.09
2022-12-20T15:37:24.040Z,100793.78
2022-12-20T15:39:50.982Z,100790.22
2022-12-20T15:42:19.684Z,100800.44
2022-12-20T15:44:47.192Z,100791.59
2022-12-20T15:47:14.995Z,100792.69
2022-12-20T15:49:49.489Z,100812.97
2022-12-20T15:52:21.679Z,100800.34
2022-12-20T15:54:49.399Z,100789.16
2022-12-20T15:57:16.494Z,100790.25
2022-12-20T16:00:01.078Z,100785.53
2022-12-20T16:02:30.959Z,100801.66
2022-12-20T16:04:58.894Z,100786.91
2022-12-20T16:07:27.316Z,100786.22
2022-12-20T16:09:55.486Z,100783.25
2022-12-20T16:12:36.805Z,100787.31
2022-12-20T16:15:04.788Z,100791.56
2022-12-20T16:17:31.721Z,100790.59
2022-12-20T16:19:58.629Z,100789.53
2022-12-20T16:22:26.578Z,100802.28
2022-12-20T16:24:53.750Z,100800.84
2022-12-20T16:27:21.082Z,100788.34
2022-12-20T16:29:48.427Z,100796.22
2022-12-20T16:32:21.861Z,100808.97
2022-12-20T16:34:52.625Z,100806.19
2022-12-20T16:37:19.667Z,100804.38
2022-12-20T16:39:46.632Z,100800.59
2022-12-20T16:42:23.031Z,100799.88
2022-12-20T16:44:54.934Z,100793.28
2022-12-20T16:47:22.507Z,100805.38
2022-12-20T16:49:52.886Z,100805.00
2022-12-20T16:52:21.968Z,100806.63
2022-12-20T16:54:49.682Z,100796.38
2022-12-20T16:57:16.787Z,100808.69
2022-12-20T16:59:43.821Z,100805.75
2022-12-20T17:02:24.653Z,100802.69
2022-12-20T17:04:52.089Z,100807.91
2022-12-20T17:07:19.069Z,100803.31
2022-12-20T17:09:46.084Z,100811.41
2022-12-20T17:12:19.943Z,100803.09
2022-12-20T17:14:47.475Z,100790.28
2022-12-20T17:17:15.359Z,100807.06
2022-12-20T17:19:42.414Z,100802.00
2022-12-20T17:24:57.042Z,100812.50
2022-12-20T17:27:24.163Z,100814.75
2022-12-20T17:29:51.400Z,100813.41
2022-12-20T17:32:24.591Z,100811.75
2022-12-20T17:34:53.284Z,100818.31
2022-12-20T17:37:21.493Z,100812.41
2022-12-20T17:39:48.921Z,100813.75
2022-12-20T17:42:16.813Z,100814.69
2022-12-20T17:44:44.053Z,100811.00
2022-12-20T17:47:12.002Z,100805.41
2022-12-20T17:49:39.282Z,100810.59
2022-12-20T17:52:06.385Z,100798.91
2022-12-20T17:54:39.645Z,100805.59
2022-12-20T17:57:14.665Z,100811.28
2022-12-20T17:59:42.520Z,100808.72
2022-12-20T18:02:25.253Z,100817.75
2022-12-20T18:04:53.138Z,100809.66
2022-12-20T18:07:20.565Z,100808.41
2022-12-20T18:09:49.108Z,100815.50
2022-12-20T18:12:17.590Z,100816.84
2022-12-20T18:14:45.091Z,100808.78
2022-12-20T18:17:12.173Z,100814.78
2022-12-20T18:19:39.879Z,100808.00
2022-12-20T18:22:06.989Z,100824.69
2022-12-20T18:24:33.954Z,100823.41
2022-12-20T18:27:00.998Z,100826.25
2022-12-20T18:29:28.548Z,100823.25
2022-12-20T18:31:55.606Z,100825.69
2022-12-20T18:34:23.116Z,100829.69
2022-12-20T18:36:50.053Z,100822.88
2022-12-20T18:39:17.122Z,100823.97
2022-12-20T18:41:44.583Z,100815.81
2022-12-20T18:44:12.052Z,100819.06
2022-12-20T18:46:39.608Z,100824.09
2022-12-20T18:49:06.825Z,100815.56
2022-12-20T18:51:38.855Z,100816.44
2022-12-20T18:54:08.078Z,100822.50
2022-12-20T18:56:38.198Z,100818.09
2022-12-20T18:59:14.207Z,100819.13
2022-12-20T19:01:42.656Z,100822.56
2022-12-20T19:04:10.983Z,100825.19
2022-12-20T19:06:38.750Z,100821.63
2022-12-20T19:09:13.123Z,100815.22
2022-12-20T19:11:41.434Z,100819.47
2022-12-20T19:14:09.607Z,100821.09
2022-12-20T19:16:39.524Z,100830.69
2022-12-20T19:19:10.989Z,100836.09
2022-12-20T19:21:41.908Z,100839.72
2022-12-20T19:24:11.096Z,100838.09
2022-12-20T19:26:38.950Z,100845.88
2022-12-20T19:29:07.362Z,100838.09
2022-12-20T19:31:37.361Z,100846.16
2022-12-20T19:34:09.179Z,100841.06
2022-12-20T19:36:54.217Z,100843.56
2022-12-20T19:39:23.478Z,100842.34
2022-12-20T19:44:39.129Z,100846.09
2022-12-20T19:47:06.428Z,100850.56
2022-12-20T19:49:35.523Z,100845.94
2022-12-20T19:52:02.911Z,100845.94
2022-12-20T19:54:29.949Z,100855.31
2022-12-20T19:56:58.503Z,100857.16
2022-12-20T19:59:25.804Z,100862.44
2022-12-20T20:01:52.856Z,100866.47
2022-12-20T20:04:19.889Z,100863.63
2022-12-20T20:06:46.873Z,100881.63
2022-12-20T20:09:13.836Z,100876.38
2022-12-20T20:11:40.887Z,100878.13
2022-12-20T20:14:10.136Z,100876.88
2022-12-20T20:16:38.146Z,100871.13
2022-12-20T20:19:05.621Z,100872.94
2022-12-20T20:21:36.277Z,100872.22
2022-12-20T20:24:03.865Z,100871.94
2022-12-20T20:26:31.842Z,100870.31
2022-12-20T20:29:02.236Z,100876.50
2022-12-20T20:31:30.358Z,100873.69
2022-12-20T20:34:00.337Z,100885.38
2022-12-20T20:36:28.092Z,100890.47
2022-12-20T20:38:55.107Z,100882.44
2022-12-20T20:41:22.693Z,100873.75
2022-12-20T20:43:50.027Z,100874.91
2022-12-20T20:46:18.237Z,100872.88
2022-12-20T20:48:45.688Z,100873.81
2022-12-20T20:51:13.247Z,100871.25
2022-12-20T20:53:40.614Z,100878.16
2022-12-20T20:56:08.719Z,100885.91
2022-12-20T20:58:36.464Z,100892.13
2022-12-20T21:01:08.449Z,100893.63
2022-12-20T21:03:36.766Z,100889.84
2022-12-20T21:06:37.123Z,100900.94
2022-12-20T21:08:53.603Z,100901.59
2022-12-20T21:11:20.972Z,100909.13
2022-12-20T21:13:48.019Z,100899.28
2022-12-20T21:16:20.725Z,100898.13
2022-12-20T21:18:59.009Z,100898.75
2022-12-20T21:21:27.008Z,100893.94
2022-12-20T21:23:55.089Z,100891.34
2022-12-20T21:26:25.251Z,100888.41
2022-12-20T21:29:00.330Z,100894.63
2022-12-20T21:31:28.223Z,100898.94
2022-12-20T21:33:56.761Z,100899.91
2022-12-20T21:36:24.407Z,100906.78
2022-12-20T21:38:54.460Z,100898.75
2022-12-20T21:41:26.266Z,100910.28
2022-12-20T21:43:58.278Z,100915.00
2022-12-20T21:46:26.960Z,100924.25
2022-12-20T21:48:55.009Z,100918.56
2022-12-20T21:51:24.218Z,100924.41
2022-12-20T21:53:53.770Z,100923.78
2022-12-20T21:56:22.599Z,100921.47
2022-12-20T21:58:49.748Z,100921.28
2022-12-20T22:01:24.459Z,100921.03
2022-12-20T22:04:00.893Z,100933.69
2022-12-20T22:06:28.755Z,100922.03
2022-12-20T22:09:06.759Z,100923.66
2022-12-20T22:11:34.793Z,100927.44
2022-12-20T22:14:01.737Z,100935.09
2022-12-20T22:16:31.824Z,100935.91
2022-12-20T22:18:59.910Z,100932.75
2022-12-20T22:21:30.319Z,100928.16
2022-12-20T22:23:58.970Z,100926.03
2022-12-20T22:26:29.865Z,100930.81
2022-12-20T22:29:00.323Z,100929.31
2022-12-20T22:31:28.182Z,100923.81
2022-12-20T22:33:57.110Z,100910.63
2022-12-20T22:36:24.246Z,100919.50
2022-12-20T22:38:53.450Z,100899.66
2022-12-20T22:41:26.494Z,100899.66
2022-12-20T22:43:54.387Z,100899.03
2022-12-20T22:46:21.832Z,100891.94
2022-12-20T22:48:48.818Z,100902.91
2022-12-20T22:51:21.786Z,100901.66
2022-12-20T22:53:49.664Z,100909.41
2022-12-20T22:56:19.583Z,100900.41
2022-12-20T22:58:47.056Z,100896.63
2022-12-20T23:01:16.798Z,100896.97
2022-12-20T23:03:44.961Z,100895.63
2022-12-20T23:06:15.593Z,100906.25
2022-12-20T23:08:43.086Z,100902.88
2022-12-20T23:11:37.183Z,100912.56
2022-12-20T23:14:24.013Z,100903.09
2022-12-20T23:16:51.741Z,100904.53
2022-12-20T23:19:18.789Z,100900.00
2022-12-20T23:22:04.055Z,100908.34
2022-12-20T23:24:30.996Z,100908.03
2022-12-20T23:26:57.995Z,100903.09
2022-12-20T23:29:25.003Z,100906.22
2022-12-20T23:31:51.971Z,100898.69
2022-12-20T23:34:19.352Z,100899.22
2022-12-20T23:36:46.671Z,100898.28
2022-12-20T23:39:13.616Z,100897.19
2022-12-20T23:41:40.693Z,100894.63
2022-12-20T23:44:07.776Z,100897.00
2022-12-20T23:46:35.135Z,100896.88
2022-12-20T23:49:02.106Z,100897.81
2022-12-20T23:51:29.041Z,100909.78
2022-12-20T23:53:55.964Z,100905.69
2022-12-20T23:56:23.088Z,100891.53
2022-12-20T23:58:54.991Z,100893.09
